createdAt,value
2018-06-25T00:02:11.936Z,100992.94
2018-06-25T00:04:40.793Z,100988.27
2018-06-25T00:07:09.622Z,100990.92
2018-06-25T00:09:38.468Z,100999.35
2018-06-25T00:13:05.908Z,100997.77
2018-06-25T00:15:34.724Z,100998.42
2018-06-25T00:18:03.685Z,100999.91
2018-06-25T00:20:32.479Z,101005.40
2018-06-25T00:23:01.333Z,101005.20
2018-06-25T00:25:32.859Z,100998.59
2018-06-25T00:28:02.218Z,100993.84
2018-06-25T00:30:30.890Z,100999.70
2018-06-25T00:32:59.737Z,101003.45
2018-06-25T00:35:28.893Z,100995.56
2018-06-25T00:38:00.234Z,100994.39
2018-06-25T00:40:29.278Z,101000.59
2018-06-25T00:42:58.300Z,100999.09
2018-06-25T00:45:28.467Z,100997.49
2018-06-25T00:47:57.363Z,100990.81
2018-06-25T00:50:27.311Z,100997.34
2018-06-25T00:52:56.133Z,100994.19
2018-06-25T00:55:24.821Z,100988.88
2018-06-25T00:57:53.767Z,100994.94
2018-06-25T01:00:22.765Z,100990.64
2018-06-25T01:03:04.938Z,100999.75
2018-06-25T01:05:33.857Z,100989.83
2018-06-25T01:08:02.612Z,100998.99
2018-06-25T01:10:31.476Z,101000.27
2018-06-25T01:13:00.273Z,101004.44
2018-06-25T01:15:32.183Z,101010.94
2018-06-25T01:17:57.966Z,101008.50
2018-06-25T01:20:26.762Z,101003.95
2018-06-25T01:22:55.612Z,101013.29
2018-06-25T01:25:24.289Z,101010.73
2018-06-25T01:27:53.133Z,101013.47
2018-06-25T01:30:22.001Z,101014.80
2018-06-25T01:32:51.829Z,101015.81
2018-06-25T01:35:20.627Z,101013.67
2018-06-25T01:37:49.419Z,101015.22
2018-06-25T01:40:18.201Z,101018.27
2018-06-25T01:42:47.020Z,101017.56
2018-06-25T01:45:15.790Z,101018.57
2018-06-25T01:47:48.295Z,101017.02
2018-06-25T01:50:17.021Z,101014.91
2018-06-25T01:52:45.767Z,101019.58
2018-06-25T01:55:14.571Z,101014.88
2018-06-25T01:57:43.289Z,101014.88
2018-06-25T02:00:14.253Z,101022.08
2018-06-25T02:02:43.284Z,101019.98
2018-06-25T02:05:12.112Z,101012.27
2018-06-25T02:07:40.887Z,101019.89
2018-06-25T02:10:12.079Z,101016.37
2018-06-25T02:12:40.864Z,101011.62
2018-06-25T02:15:11.234Z,101014.86
2018-06-25T02:17:40.041Z,101019.66
2018-06-25T02:20:08.950Z,101016.24
2018-06-25T02:22:37.695Z,101015.44
2018-06-25T02:25:06.525Z,101015.81
2018-06-25T02:27:35.280Z,101011.51
2018-06-25T02:30:04.048Z,101015.80
2018-06-25T02:32:32.849Z,101014.95
2018-06-25T02:35:01.620Z,101016.48
2018-06-25T02:37:30.417Z,101021.45
2018-06-25T02:48:29.464Z,101023.45
2018-06-25T02:50:58.325Z,101025.36
2018-06-25T02:53:27.191Z,101029.84
2018-06-25T02:55:56.001Z,101021.54
2018-06-25T02:58:24.757Z,101028.31
2018-06-25T03:00:53.569Z,101019.91
2018-06-25T03:03:22.414Z,101024.34
2018-06-25T03:05:51.288Z,101028.26
2018-06-25T03:08:20.122Z,101023.03
2018-06-25T03:10:48.852Z,101026.17
2018-06-25T03:13:17.623Z,101027.55
2018-06-25T03:15:46.379Z,101024.03
2018-06-25T03:18:15.219Z,101032.12
2018-06-25T03:20:44.059Z,101025.36
2018-06-25T03:23:12.801Z,101028.50
2018-06-25T03:25:41.544Z,101030.64
2018-06-25T03:28:11.563Z,101030.27
2018-06-25T03:30:40.422Z,101026.55
2018-06-25T03:33:09.252Z,101026.45
2018-06-25T03:35:38.141Z,101028.69
2018-06-25T03:38:06.921Z,101030.83
2018-06-25T03:40:35.686Z,101038.99
2018-06-25T03:43:04.895Z,101034.39
2018-06-25T03:45:33.760Z,101038.48
2018-06-25T03:48:02.721Z,101047.16
2018-06-25T03:50:32.660Z,101050.83
2018-06-25T03:55:52.521Z,101048.38
2018-06-25T03:58:21.348Z,101052.42
2018-06-25T04:00:50.867Z,101053.70
2018-06-25T04:03:19.705Z,101054.11
2018-06-25T04:05:48.466Z,101055.20
2018-06-25T04:08:17.280Z,101066.56
2018-06-25T04:10:46.259Z,101067.79
2018-06-25T04:13:15.063Z,101074.66
2018-06-25T04:15:43.875Z,101077.98
2018-06-25T04:18:13.168Z,101081.28
2018-06-25T04:20:42.031Z,101087.74
2018-06-25T04:23:11.097Z,101088.55
2018-06-25T04:25:42.454Z,101090.63
2018-06-25T04:28:11.300Z,101092.72
2018-06-25T04:30:40.463Z,101091.92
2018-06-25T04:33:09.311Z,101092.38
2018-06-25T04:35:46.359Z,101099.47
2018-06-25T04:41:54.440Z,101098.16
2018-06-25T04:51:32.466Z,101106.19
2018-06-25T05:17:31.446Z,101117.64
2018-06-25T05:20:00.326Z,101115.50
2018-06-25T05:22:29.204Z,101118.63
2018-06-25T05:24:57.937Z,101121.34
2018-06-25T05:27:26.822Z,101123.15
2018-06-25T05:29:55.592Z,101131.85
2018-06-25T05:32:24.416Z,101134.20
2018-06-25T05:34:53.382Z,101142.89
2018-06-25T05:37:22.162Z,101148.28
2018-06-25T05:39:51.227Z,101148.20
2018-06-25T05:42:19.999Z,101147.81
2018-06-25T05:44:49.065Z,101151.65
2018-06-25T05:47:17.952Z,101152.16
2018-06-25T05:49:46.764Z,101155.25
2018-06-25T05:52:15.646Z,101159.08
2018-06-25T05:54:44.521Z,101158.67
2018-06-25T05:57:13.396Z,101159.30
2018-06-25T05:59:42.249Z,101158.34
2018-06-25T06:02:10.982Z,101151.44
2018-06-25T06:04:39.698Z,101150.41
2018-06-25T06:07:08.622Z,101155.00
2018-06-25T06:09:37.466Z,101155.44
2018-06-25T06:12:06.367Z,101158.34
2018-06-25T06:14:35.250Z,101151.41
2018-06-25T06:17:03.998Z,101147.80
2018-06-25T06:19:32.690Z,101147.05
2018-06-25T06:22:01.502Z,101150.52
2018-06-25T06:24:38.174Z,101143.49
2018-06-25T06:27:06.886Z,101150.78
2018-06-25T06:29:37.990Z,101150.16
2018-06-25T06:34:54.385Z,101161.03
2018-06-25T06:37:28.347Z,101164.22
2018-06-25T06:39:58.035Z,101164.58
2018-06-25T06:42:33.002Z,101170.01
2018-06-25T06:45:02.311Z,101166.16
2018-06-25T06:47:31.038Z,101169.21
2018-06-25T06:49:59.888Z,101168.85
2018-06-25T06:52:28.600Z,101174.84
2018-06-25T06:55:00.289Z,101178.72
2018-06-25T06:57:29.334Z,101175.91
2018-06-25T06:59:58.351Z,101178.63
2018-06-25T07:05:14.686Z,101185.24
2018-06-25T07:07:43.606Z,101179.42
2018-06-25T07:10:12.360Z,101181.64
2018-06-25T07:12:41.312Z,101181.77
2018-06-25T07:15:12.408Z,101181.40
2018-06-25T07:17:41.448Z,101172.52
2018-06-25T07:20:10.174Z,101174.03
2018-06-25T07:22:39.108Z,101177.03
2018-06-25T07:25:07.907Z,101177.25
2018-06-25T07:27:36.945Z,101177.43
2018-06-25T07:30:05.733Z,101182.77
2018-06-25T07:32:34.723Z,101186.00
2018-06-25T07:35:03.437Z,101185.53
2018-06-25T07:37:32.233Z,101185.41
2018-06-25T07:40:01.000Z,101185.25
2018-06-25T07:42:29.855Z,101188.63
2018-06-25T07:44:58.579Z,101191.48
2018-06-25T07:47:27.438Z,101192.13
2018-06-25T07:49:56.298Z,101194.38
2018-06-25T07:52:25.125Z,101182.84
2018-06-25T07:54:53.980Z,101188.70
2018-06-25T07:57:22.972Z,101185.46
2018-06-25T07:59:52.413Z,101192.54
2018-06-25T08:02:21.859Z,101191.59
2018-06-25T08:04:51.619Z,101190.77
2018-06-25T08:07:20.362Z,101194.20
2018-06-25T08:09:49.137Z,101188.42
2018-06-25T08:12:20.998Z,101197.55
2018-06-25T08:14:51.646Z,101195.05
2018-06-25T08:17:18.636Z,101198.93
2018-06-25T08:19:48.992Z,101196.15
2018-06-25T08:22:17.869Z,101198.59
2018-06-25T08:24:46.592Z,101200.20
2018-06-25T08:27:15.388Z,101205.88
2018-06-25T08:29:44.307Z,101201.92
2018-06-25T08:32:13.131Z,101208.88
2018-06-25T08:34:41.931Z,101204.30
2018-06-25T08:37:10.889Z,101204.23
2018-06-25T08:39:39.661Z,101208.72
2018-06-25T08:42:08.456Z,101209.08
2018-06-25T08:44:37.276Z,101207.75
2018-06-25T08:47:05.957Z,101196.98
2018-06-25T08:49:34.823Z,101207.59
2018-06-25T08:52:03.676Z,101205.33
2018-06-25T08:54:32.371Z,101203.89
2018-06-25T08:57:01.104Z,101204.38
2018-06-25T08:59:29.689Z,101204.42
2018-06-25T09:01:58.414Z,101210.05
2018-06-25T09:04:27.288Z,101213.83
2018-06-25T09:06:55.920Z,101204.61
2018-06-25T09:09:24.664Z,101200.44
2018-06-25T09:11:53.363Z,101206.23
2018-06-25T09:14:22.235Z,101203.74
2018-06-25T09:17:00.160Z,101206.80
2018-06-25T09:19:28.961Z,101205.28
2018-06-25T09:21:57.812Z,101213.84
2018-06-25T09:24:26.481Z,101209.12
2018-06-25T09:26:55.452Z,101209.05
2018-06-25T09:29:24.158Z,101205.06
2018-06-25T09:31:52.909Z,101212.08
2018-06-25T09:34:21.612Z,101214.41
2018-06-25T09:36:50.797Z,101211.52
2018-06-25T09:39:19.804Z,101211.62
2018-06-25T09:41:48.727Z,101211.50
2018-06-25T09:44:17.250Z,101208.02
2018-06-25T09:46:46.029Z,101208.03
2018-06-25T09:49:23.178Z,101215.83
2018-06-25T09:51:51.945Z,101212.20
2018-06-25T09:54:20.645Z,101211.14
2018-06-25T09:56:49.397Z,101217.30
2018-06-25T09:59:18.047Z,101210.40
2018-06-25T10:01:46.858Z,101217.63
2018-06-25T10:04:15.709Z,101208.61
2018-06-25T10:06:44.468Z,101209.49
2018-06-25T10:09:13.165Z,101208.89
2018-06-25T10:11:41.831Z,101205.83
2018-06-25T10:14:12.532Z,101201.34
2018-06-25T10:16:41.226Z,101202.76
2018-06-25T10:19:11.610Z,101203.84
2018-06-25T10:21:38.719Z,101196.41
2018-06-25T10:24:07.411Z,101200.80
2018-06-25T10:26:36.115Z,101201.83
2018-06-25T10:29:04.845Z,101198.16
2018-06-25T10:31:33.592Z,101203.89
2018-06-25T10:34:02.354Z,101201.95
2018-06-25T10:36:31.156Z,101192.42
2018-06-25T10:38:59.896Z,101203.67
2018-06-25T10:41:28.595Z,101197.66
2018-06-25T10:44:03.084Z,101198.92
2018-06-25T10:46:32.896Z,101195.72
2018-06-25T10:49:01.689Z,101194.88
2018-06-25T10:51:30.788Z,101195.07
2018-06-25T10:53:59.532Z,101194.36
2018-06-25T10:56:28.292Z,101189.72
2018-06-25T10:58:56.976Z,101194.16
2018-06-25T11:01:42.257Z,101184.00
2018-06-25T11:04:11.376Z,101187.79
2018-06-25T11:06:40.275Z,101188.45
2018-06-25T11:09:08.978Z,101188.30
2018-06-25T11:11:37.677Z,101181.80
2018-06-25T11:14:09.332Z,101170.79
2018-06-25T11:16:41.978Z,101170.59
2018-06-25T11:19:11.722Z,101175.45
2018-06-25T11:21:44.206Z,101181.12
2018-06-25T11:24:13.122Z,101174.05
2018-06-25T11:26:43.501Z,101171.27
2018-06-25T11:29:12.170Z,101171.00
2018-06-25T11:31:40.839Z,101178.41
2018-06-25T11:34:09.658Z,101174.31
2018-06-25T11:36:38.325Z,101169.73
2018-06-25T11:39:07.075Z,101162.87
2018-06-25T11:41:37.474Z,101164.23
2018-06-25T11:44:11.257Z,101170.73
2018-06-25T11:46:53.477Z,101166.92
2018-06-25T11:49:23.249Z,101165.13
2018-06-25T11:51:53.407Z,101159.55
2018-06-25T11:54:23.241Z,101154.49
2018-06-25T11:56:52.373Z,101158.13
2018-06-25T11:59:21.574Z,101158.83
2018-06-25T12:01:50.440Z,101161.12
2018-06-25T12:04:19.141Z,101159.89
2018-06-25T12:06:47.832Z,101162.16
2018-06-25T12:09:16.694Z,101154.97
2018-06-25T12:11:45.406Z,101155.69
2018-06-25T12:14:14.178Z,101144.69
2018-06-25T12:16:42.918Z,101143.31
2018-06-25T12:19:14.175Z,101150.89
2018-06-25T12:21:42.925Z,101148.27
2018-06-25T12:24:13.284Z,101143.48
2018-06-25T12:26:42.049Z,101135.41
2018-06-25T12:29:12.949Z,101137.27
2018-06-25T12:31:41.844Z,101141.43
2018-06-25T12:34:10.594Z,101142.10
2018-06-25T12:36:39.379Z,101135.80
2018-06-25T12:39:08.081Z,101136.64
2018-06-25T12:41:37.643Z,101139.45
2018-06-25T12:44:06.343Z,101144.60
2018-06-25T12:46:35.083Z,101136.08
2018-06-25T12:49:04.493Z,101134.66
2018-06-25T12:51:33.322Z,101129.83
2018-06-25T12:54:02.085Z,101129.55
2018-06-25T12:56:33.064Z,101128.52
2018-06-25T12:59:02.522Z,101123.12
2018-06-25T13:01:32.275Z,101129.09
2018-06-25T13:04:01.504Z,101130.89
2018-06-25T13:06:32.610Z,101130.84
2018-06-25T13:09:01.315Z,101125.86
2018-06-25T13:11:30.113Z,101127.74
2018-06-25T13:13:58.913Z,101124.02
2018-06-25T13:16:28.369Z,101133.18
2018-06-25T13:18:57.347Z,101137.05
2018-06-25T13:21:26.416Z,101133.27
2018-06-25T13:23:55.706Z,101133.00
2018-06-25T13:26:25.375Z,101134.95
2018-06-25T13:28:55.595Z,101125.74
2018-06-25T13:31:24.307Z,101125.37
2018-06-25T13:33:53.532Z,101126.48
2018-06-25T13:36:25.228Z,101125.01
2018-06-25T13:38:54.032Z,101128.28
2018-06-25T13:41:24.372Z,101127.75
2018-06-25T13:43:53.535Z,101125.38
2018-06-25T13:46:24.454Z,101126.41
2018-06-25T13:48:54.305Z,101124.94
2018-06-25T13:54:17.329Z,101126.00
2018-06-25T13:56:48.109Z,101122.17
2018-06-25T13:59:19.278Z,101127.91
2018-06-25T14:01:48.573Z,101131.23
2018-06-25T14:04:28.380Z,101129.08
2018-06-25T14:07:03.237Z,101130.11
2018-06-25T14:09:32.945Z,101128.19
2018-06-25T14:12:06.051Z,101127.38
2018-06-25T14:14:35.704Z,101132.84
2018-06-25T14:17:05.794Z,101125.20
2018-06-25T14:19:40.885Z,101126.17
2018-06-25T14:22:16.144Z,101126.16
2018-06-25T14:24:49.037Z,101118.66
2018-06-25T14:30:28.933Z,101113.30
2018-06-25T14:32:59.721Z,101113.53
2018-06-25T14:35:32.968Z,101109.41
2018-06-25T14:38:02.395Z,101108.77
2018-06-25T14:40:36.444Z,101110.70
2018-06-25T14:43:09.864Z,101108.84
2018-06-25T14:45:39.798Z,101113.64
2018-06-25T14:48:12.444Z,101105.81
2018-06-25T14:50:45.236Z,101099.72
2018-06-25T14:53:14.902Z,101108.15
2018-06-25T14:55:49.337Z,101109.89
2018-06-25T14:58:19.563Z,101109.84
2018-06-25T15:00:52.466Z,101115.72
2018-06-25T15:03:25.443Z,101110.73
2018-06-25T15:05:56.151Z,101112.95
2018-06-25T15:08:26.311Z,101105.72
2018-06-25T15:10:58.159Z,101119.09
2018-06-25T15:13:27.311Z,101112.89
2018-06-25T15:15:56.469Z,101106.95
2018-06-25T15:18:25.829Z,101108.20
2018-06-25T15:20:55.405Z,101105.95
2018-06-25T15:23:24.868Z,101098.76
2018-06-25T15:25:54.546Z,101111.80
2018-06-25T15:28:26.047Z,101107.27
2018-06-25T15:30:57.732Z,101105.94
2018-06-25T15:36:19.986Z,101105.69
2018-06-25T15:38:55.191Z,101111.03
2018-06-25T15:41:24.977Z,101103.53
2018-06-25T15:46:45.220Z,101113.51
2018-06-25T15:49:14.042Z,101106.04
2018-06-25T15:51:43.484Z,101095.20
2018-06-25T15:54:12.543Z,101098.73
2018-06-25T15:56:42.154Z,101103.23
2018-06-25T15:59:18.017Z,101097.73
2018-06-25T16:04:39.366Z,101098.01
2018-06-25T16:10:07.077Z,101109.14
2018-06-25T16:12:38.491Z,101114.34
2018-06-25T16:18:06.799Z,101103.30
2018-06-25T16:20:36.146Z,101097.63
2018-06-25T16:23:05.106Z,101090.78
2018-06-25T16:25:36.668Z,101100.10
2018-06-25T16:30:53.659Z,101092.86
2018-06-25T16:33:25.445Z,101089.91
2018-06-25T16:36:01.889Z,101092.32
2018-06-25T16:38:48.501Z,101100.75
2018-06-25T16:41:18.232Z,101110.14
2018-06-25T16:43:47.093Z,101105.67
2018-06-25T16:46:18.414Z,101107.60
2018-06-25T16:48:47.774Z,101108.34
2018-06-25T16:51:16.899Z,101106.73
2018-06-25T16:53:48.444Z,101120.27
2018-06-25T16:56:17.269Z,101111.80
2018-06-25T16:58:46.223Z,101113.32
2018-06-25T17:01:17.664Z,101112.89
2018-06-25T17:03:46.996Z,101121.19
2018-06-25T17:06:16.987Z,101124.23
2018-06-25T17:08:52.132Z,101112.80
2018-06-25T17:11:22.798Z,101129.83
2018-06-25T17:14:06.167Z,101113.34
2018-06-25T17:16:36.185Z,101110.47
2018-06-25T17:19:05.302Z,101106.91
2018-06-25T17:21:41.539Z,101110.79
2018-06-25T17:24:10.573Z,101111.19
2018-06-25T17:32:22.408Z,101114.97
2018-06-25T17:34:53.966Z,101121.04
2018-06-25T17:37:24.565Z,101115.83
2018-06-25T17:39:53.635Z,101118.61
2018-06-25T17:42:22.933Z,101114.68
2018-06-25T17:44:53.195Z,101114.56
2018-06-25T17:47:23.132Z,101114.19
2018-06-25T17:49:53.102Z,101107.87
2018-06-25T17:52:25.514Z,101115.33
2018-06-25T17:54:55.997Z,101116.95
2018-06-25T17:57:24.791Z,101124.64
2018-06-25T17:59:54.639Z,101122.79
2018-06-25T18:02:24.671Z,101128.29
2018-06-25T18:05:03.919Z,101130.31
2018-06-25T18:07:33.207Z,101130.62
2018-06-25T18:10:03.768Z,101140.80
2018-06-25T18:12:39.439Z,101133.34
2018-06-25T18:15:08.358Z,101137.16
2018-06-25T18:17:51.791Z,101133.94
2018-06-25T18:20:21.306Z,101135.47
2018-06-25T18:22:50.340Z,101141.87
2018-06-25T18:25:36.018Z,101140.25
2018-06-25T18:28:06.477Z,101141.10
2018-06-25T18:30:35.746Z,101138.93
2018-06-25T18:33:06.151Z,101141.38
2018-06-25T18:35:35.386Z,101134.17
2018-06-25T18:38:07.884Z,101136.58
2018-06-25T18:40:37.139Z,101146.77
2018-06-25T18:43:10.366Z,101152.66
2018-06-25T18:45:40.802Z,101153.45
2018-06-25T18:51:00.667Z,101173.81
2018-06-25T18:53:30.094Z,101174.18
2018-06-25T18:56:09.604Z,101176.70
2018-06-25T18:58:39.657Z,101175.91
2018-06-25T19:04:02.120Z,101177.44
2018-06-25T19:06:31.451Z,101181.84
2018-06-25T19:09:01.904Z,101179.28
2018-06-25T19:11:30.956Z,101185.38
2018-06-25T19:17:06.705Z,101193.47
2018-06-25T19:19:35.988Z,101198.34
2018-06-25T19:22:05.192Z,101199.83
2018-06-25T19:24:34.303Z,101203.05
2018-06-25T19:27:04.274Z,101199.69
2018-06-25T19:29:37.372Z,101206.35
2018-06-25T19:35:06.358Z,101213.15
2018-06-25T19:37:36.115Z,101215.74
2018-06-25T19:40:05.514Z,101212.20
2018-06-25T19:42:34.459Z,101222.59
2018-06-25T19:45:03.497Z,101225.43
2018-06-25T19:47:32.421Z,101225.12
2018-06-25T19:50:04.761Z,101226.66
2018-06-25T19:52:33.664Z,101227.81
2018-06-25T19:55:03.996Z,101227.23
2018-06-25T19:57:32.801Z,101233.84
2018-06-25T20:00:01.600Z,101233.77
2018-06-25T20:02:30.941Z,101234.93
2018-06-25T20:05:00.743Z,101237.93
2018-06-25T20:07:29.935Z,101243.22
2018-06-25T20:10:01.695Z,101248.05
2018-06-25T20:12:32.749Z,101242.47
2018-06-25T20:15:04.004Z,101248.58
2018-06-25T20:17:33.207Z,101248.03
2018-06-25T20:20:03.056Z,101251.36
2018-06-25T20:22:47.333Z,101250.20
2018-06-25T20:25:16.124Z,101247.43
2018-06-25T20:27:44.984Z,101251.22
2018-06-25T20:30:13.812Z,101242.81
2018-06-25T20:32:42.707Z,101245.08
2018-06-25T20:35:13.793Z,101241.25
2018-06-25T20:37:42.700Z,101248.70
2018-06-25T20:40:14.037Z,101248.38
2018-06-25T20:42:42.925Z,101253.59
2018-06-25T20:45:12.547Z,101251.25
2018-06-25T20:47:41.348Z,101255.62
2018-06-25T20:50:10.226Z,101263.23
2018-06-25T20:52:39.005Z,101260.85
2018-06-25T20:55:08.285Z,101267.31
2018-06-25T20:57:37.133Z,101259.11
2018-06-25T21:00:05.808Z,101261.18
2018-06-25T21:02:34.561Z,101257.86
2018-06-25T21:05:03.332Z,101257.16
2018-06-25T21:07:33.245Z,101261.89
2018-06-25T21:10:02.139Z,101262.77
2018-06-25T21:12:32.833Z,101263.30
2018-06-25T21:15:07.370Z,101265.55
2018-06-25T21:17:39.194Z,101268.19
2018-06-25T21:20:09.257Z,101276.41
2018-06-25T21:22:39.012Z,101267.80
2018-06-25T21:25:09.856Z,101264.29
2018-06-25T21:27:39.814Z,101272.62
2018-06-25T21:30:11.980Z,101269.16
2018-06-25T21:32:40.851Z,101273.20
2018-06-25T21:35:10.861Z,101273.98
2018-06-25T21:37:44.911Z,101276.96
2018-06-25T21:40:13.818Z,101270.22
2018-06-25T21:42:42.764Z,101275.42
2018-06-25T21:45:14.018Z,101272.40
2018-06-25T21:47:51.710Z,101279.59
2018-06-25T21:50:25.966Z,101279.59
2018-06-25T21:52:56.747Z,101281.72
2018-06-25T21:55:25.952Z,101278.99
2018-06-25T21:58:00.388Z,101275.30
2018-06-25T22:00:29.768Z,101275.87
2018-06-25T22:03:02.833Z,101272.16
2018-06-25T22:05:37.130Z,101272.60
2018-06-25T22:08:16.860Z,101277.41
2018-06-25T22:10:56.905Z,101276.78
2018-06-25T22:16:16.078Z,101279.23
2018-06-25T22:19:01.307Z,101281.03
2018-06-25T22:21:32.650Z,101288.98
2018-06-25T22:24:02.110Z,101295.17
2018-06-25T22:29:33.465Z,101296.70
2018-06-25T22:32:12.616Z,101291.58
2018-06-25T22:37:46.800Z,101294.58
2018-06-25T22:40:19.346Z,101299.08
2018-06-25T22:45:47.223Z,101292.31
2018-06-25T22:48:19.434Z,101288.31
2018-06-25T22:53:44.231Z,101280.14
2018-06-25T22:59:07.300Z,101282.08
2018-06-25T23:01:36.019Z,101279.80
2018-06-25T23:04:05.813Z,101278.51
2018-06-25T23:06:36.552Z,101279.55
2018-06-25T23:09:07.146Z,101273.08
2018-06-25T23:11:35.892Z,101278.86
2018-06-25T23:14:10.461Z,101281.79
2018-06-25T23:16:39.265Z,101280.89
2018-06-25T23:19:08.674Z,101274.48
2018-06-25T23:21:37.713Z,101272.58
2018-06-25T23:24:18.940Z,101272.84
2018-06-25T23:26:48.591Z,101273.13
2018-06-25T23:29:19.170Z,101276.47
2018-06-25T23:31:52.482Z,101274.70
2018-06-25T23:34:32.874Z,101278.81
2018-06-25T23:37:01.707Z,101274.23
2018-06-25T23:39:30.559Z,101286.80
2018-06-25T23:41:59.980Z,101291.70
2018-06-25T23:44:28.944Z,101285.82
2018-06-25T23:46:58.555Z,101288.24
2018-06-25T23:49:32.594Z,101294.02
2018-06-25T23:52:02.116Z,101292.33
2018-06-25T23:54:31.285Z,101295.13
2018-06-25T23:57:00.300Z,101288.30
2018-06-25T23:59:29.277Z,101295.30
